Terminal Aerodrome Forecast
Issued by NWS

Home | Current Version | Previous Version | Text Only | Print | Product List | Glossary On
Versions: 1 2 3 4 5 6 7 8 9 10 11 12 13 14 15 16 17 18 19 20 21 22 23 24 25 26 27 28 29 30 31 32 33 34 35
000
FTUS46 KLOX 220811 AAA
TAFLGB
TAF AMD
KLGB 220811Z 2208/2306 11005KT P6SM VCSH SCT025 OVC100
     FM220930 14010KT P6SM -RA BKN025 OVC050
     FM221600 15015G25KT 5SM -RA BR BKN012 OVC025
     FM222100 16020G30KT 1SM +RA BR BKN007 OVC012
     FM230300 21015G25KT 4SM -RA BKN012 OVC025=

USA.gov is the U.S. government's official web portal to all federal, state and local government web resources and services.